sensor_id;sensor_type;location;lat;lon;timestamp;temperature;humidity
12926;DHT22;6529;50.566;9.774;2023-03-31T00:01:25;9.80;99.90
12926;DHT22;6529;50.566;9.774;2023-03-31T00:03:50;9.80;99.90
12926;DHT22;6529;50.566;9.774;2023-03-31T00:06:16;9.80;99.90
12926;DHT22;6529;50.566;9.774;2023-03-31T00:08:45;9.80;99.90
12926;DHT22;6529;50.566;9.774;2023-03-31T00:11:11;9.80;99.90
12926;DHT22;6529;50.566;9.774;2023-03-31T00:13:38;9.80;99.90
12926;DHT22;6529;50.566;9.774;2023-03-31T00:16:08;9.80;99.90
12926;DHT22;6529;50.566;9.774;2023-03-31T00:18:34;9.70;99.90
12926;DHT22;6529;50.566;9.774;2023-03-31T00:23:32;9.80;99.90
12926;DHT22;6529;50.566;9.774;2023-03-31T00:25:57;9.80;99.90
12926;DHT22;6529;50.566;9.774;2023-03-31T00:28:23;9.80;99.90
12926;DHT22;6529;50.566;9.774;2023-03-31T00:30:49;9.90;99.90
12926;DHT22;6529;50.566;9.774;2023-03-31T00:33:16;9.90;99.90
12926;DHT22;6529;50.566;9.774;2023-03-31T00:35:41;9.90;99.90
12926;DHT22;6529;50.566;9.774;2023-03-31T00:38:07;9.90;99.90
12926;DHT22;6529;50.566;9.774;2023-03-31T00:40:34;9.90;99.90
12926;DHT22;6529;50.566;9.774;2023-03-31T00:43:00;9.90;99.90
12926;DHT22;6529;50.566;9.774;2023-03-31T00:45:30;10.00;99.90
12926;DHT22;6529;50.566;9.774;2023-03-31T00:48:03;9.90;99.90
12926;DHT22;6529;50.566;9.774;2023-03-31T00:50:41;9.90;99.90
12926;DHT22;6529;50.566;9.774;2023-03-31T00:53:15;9.90;99.90
12926;DHT22;6529;50.566;9.774;2023-03-31T00:55:50;9.80;99.90
12926;DHT22;6529;50.566;9.774;2023-03-31T00:58:19;9.80;99.90
12926;DHT22;6529;50.566;9.774;2023-03-31T01:00:49;9.70;99.90
12926;DHT22;6529;50.566;9.774;2023-03-31T01:03:19;9.70;99.90
12926;DHT22;6529;50.566;9.774;2023-03-31T01:06:07;9.60;99.90
12926;DHT22;6529;50.566;9.774;2023-03-31T01:08:36;9.60;99.90
12926;DHT22;6529;50.566;9.774;2023-03-31T01:11:05;9.50;99.90
12926;DHT22;6529;50.566;9.774;2023-03-31T01:13:35;9.50;99.90
12926;DHT22;6529;50.566;9.774;2023-03-31T01:16:01;9.40;99.90
12926;DHT22;6529;50.566;9.774;2023-03-31T01:18:28;9.40;99.90
12926;DHT22;6529;50.566;9.774;2023-03-31T01:24:11;9.30;99.90
12926;DHT22;6529;50.566;9.774;2023-03-31T01:43:52;9.20;99.90
12926;DHT22;6529;50.566;9.774;2023-03-31T01:50:03;9.20;99.90
12926;DHT22;6529;50.566;9.774;2023-03-31T01:52:07;9.20;99.90
12926;DHT22;6529;50.566;9.774;2023-03-31T01:54:47;9.20;99.90
12926;DHT22;6529;50.566;9.774;2023-03-31T01:57:19;9.20;99.90
12926;DHT22;6529;50.566;9.774;2023-03-31T02:00:07;9.20;99.90
12926;DHT22;6529;50.566;9.774;2023-03-31T02:03:04;9.20;99.90
12926;DHT22;6529;50.566;9.774;2023-03-31T02:05:40;9.20;99.90
12926;DHT22;6529;50.566;9.774;2023-03-31T02:08:12;9.20;99.90
12926;DHT22;6529;50.566;9.774;2023-03-31T02:10:41;9.30;99.90
12926;DHT22;6529;50.566;9.774;2023-03-31T02:13:10;9.30;99.90
12926;DHT22;6529;50.566;9.774;2023-03-31T02:15:40;9.30;99.90
12926;DHT22;6529;50.566;9.774;2023-03-31T02:18:10;9.20;99.90
12926;DHT22;6529;50.566;9.774;2023-03-31T02:20:39;9.20;99.90
12926;DHT22;6529;50.566;9.774;2023-03-31T02:23:10;9.20;99.90
12926;DHT22;6529;50.566;9.774;2023-03-31T02:25:52;9.20;99.90
12926;DHT22;6529;50.566;9.774;2023-03-31T02:28:23;9.30;99.90
12926;DHT22;6529;50.566;9.774;2023-03-31T02:33:38;9.30;99.90
12926;DHT22;6529;50.566;9.774;2023-03-31T02:36:04;9.30;99.90
12926;DHT22;6529;50.566;9.774;2023-03-31T02:38:39;9.30;99.90
12926;DHT22;6529;50.566;9.774;2023-03-31T02:41:06;9.30;99.90
12926;DHT22;6529;50.566;9.774;2023-03-31T02:43:32;9.20;99.90
12926;DHT22;6529;50.566;9.774;2023-03-31T02:45:58;9.20;99.90
12926;DHT22;6529;50.566;9.774;2023-03-31T02:48:29;9.30;99.90
12926;DHT22;6529;50.566;9.774;2023-03-31T02:56:33;9.20;99.90
12926;DHT22;6529;50.566;9.774;2023-03-31T02:59:13;9.30;99.90
12926;DHT22;6529;50.566;9.774;2023-03-31T03:10:17;9.20;99.90
12926;DHT22;6529;50.566;9.774;2023-03-31T03:13:03;9.20;99.90
12926;DHT22;6529;50.566;9.774;2023-03-31T03:16:04;9.10;99.90
12926;DHT22;6529;50.566;9.774;2023-03-31T03:18:33;9.20;99.90
12926;DHT22;6529;50.566;9.774;2023-03-31T03:20:59;9.10;99.90
12926;DHT22;6529;50.566;9.774;2023-03-31T03:23:25;9.20;99.90
12926;DHT22;6529;50.566;9.774;2023-03-31T03:25:50;9.10;99.90
12926;DHT22;6529;50.566;9.774;2023-03-31T03:28:16;9.10;99.90
12926;DHT22;6529;50.566;9.774;2023-03-31T03:30:42;9.20;99.90
12926;DHT22;6529;50.566;9.774;2023-03-31T03:33:07;9.10;99.90
12926;DHT22;6529;50.566;9.774;2023-03-31T03:35:34;9.10;99.90
12926;DHT22;6529;50.566;9.774;2023-03-31T03:37:59;9.10;99.90
12926;DHT22;6529;50.566;9.774;2023-03-31T03:40:25;9.10;99.90
12926;DHT22;6529;50.566;9.774;2023-03-31T03:42:50;9.10;99.90
12926;DHT22;6529;50.566;9.774;2023-03-31T03:45:16;9.10;99.90
12926;DHT22;6529;50.566;9.774;2023-03-31T03:47:41;9.00;99.90
12926;DHT22;6529;50.566;9.774;2023-03-31T03:50:08;9.00;99.90
12926;DHT22;6529;50.566;9.774;2023-03-31T03:52:33;9.00;99.90
12926;DHT22;6529;50.566;9.774;2023-03-31T03:54:59;9.00;99.90
12926;DHT22;6529;50.566;9.774;2023-03-31T03:57:26;9.00;99.90
12926;DHT22;6529;50.566;9.774;2023-03-31T03:59:52;9.00;99.90
12926;DHT22;6529;50.566;9.774;2023-03-31T04:02:17;9.00;99.90
12926;DHT22;6529;50.566;9.774;2023-03-31T04:04:43;8.90;99.90
12926;DHT22;6529;50.566;9.774;2023-03-31T04:07:08;8.90;99.90
12926;DHT22;6529;50.566;9.774;2023-03-31T04:09:34;8.90;99.90
12926;DHT22;6529;50.566;9.774;2023-03-31T04:12:00;8.90;99.90
12926;DHT22;6529;50.566;9.774;2023-03-31T04:14:25;8.90;99.90
12926;DHT22;6529;50.566;9.774;2023-03-31T04:16:51;8.90;99.90
12926;DHT22;6529;50.566;9.774;2023-03-31T04:19:17;8.90;99.90
12926;DHT22;6529;50.566;9.774;2023-03-31T04:21:43;8.80;99.90
12926;DHT22;6529;50.566;9.774;2023-03-31T04:24:15;8.80;99.90
12926;DHT22;6529;50.566;9.774;2023-03-31T04:26:46;8.90;99.90
12926;DHT22;6529;50.566;9.774;2023-03-31T04:29:15;8.90;99.90
12926;DHT22;6529;50.566;9.774;2023-03-31T04:31:41;9.00;99.90
12926;DHT22;6529;50.566;9.774;2023-03-31T04:34:12;9.00;99.90
12926;DHT22;6529;50.566;9.774;2023-03-31T04:36:43;9.00;99.90
12926;DHT22;6529;50.566;9.774;2023-03-31T04:39:15;9.00;99.90
12926;DHT22;6529;50.566;9.774;2023-03-31T04:41:40;9.10;99.90
12926;DHT22;6529;50.566;9.774;2023-03-31T04:44:06;9.00;99.90
12926;DHT22;6529;50.566;9.774;2023-03-31T04:46:33;9.10;99.90
12926;DHT22;6529;50.566;9.774;2023-03-31T04:48:59;9.00;99.90
12926;DHT22;6529;50.566;9.774;2023-03-31T04:51:26;9.10;99.90
12926;DHT22;6529;50.566;9.774;2023-03-31T04:53:52;9.20;99.90
12926;DHT22;6529;50.566;9.774;2023-03-31T04:56:17;9.20;99.90
12926;DHT22;6529;50.566;9.774;2023-03-31T04:58:43;9.20;99.90
12926;DHT22;6529;50.566;9.774;2023-03-31T05:01:09;9.20;99.90
12926;DHT22;6529;50.566;9.774;2023-03-31T05:03:38;9.20;99.90
12926;DHT22;6529;50.566;9.774;2023-03-31T05:06:04;9.10;99.90
12926;DHT22;6529;50.566;9.774;2023-03-31T05:08:30;9.10;99.90
12926;DHT22;6529;50.566;9.774;2023-03-31T05:10:55;9.10;99.90
12926;DHT22;6529;50.566;9.774;2023-03-31T05:13:22;9.00;99.90
12926;DHT22;6529;50.566;9.774;2023-03-31T05:15:47;9.00;99.90
12926;DHT22;6529;50.566;9.774;2023-03-31T05:18:15;9.00;99.90
12926;DHT22;6529;50.566;9.774;2023-03-31T05:20:41;9.00;99.90
12926;DHT22;6529;50.566;9.774;2023-03-31T05:23:06;9.00;99.90
12926;DHT22;6529;50.566;9.774;2023-03-31T05:25:32;9.00;99.90
12926;DHT22;6529;50.566;9.774;2023-03-31T05:27:58;9.00;99.90
12926;DHT22;6529;50.566;9.774;2023-03-31T05:30:24;9.00;99.90
12926;DHT22;6529;50.566;9.774;2023-03-31T05:32:54;9.00;99.90
12926;DHT22;6529;50.566;9.774;2023-03-31T05:35:20;9.00;99.90
12926;DHT22;6529;50.566;9.774;2023-03-31T05:37:46;9.00;99.90
12926;DHT22;6529;50.566;9.774;2023-03-31T05:40:11;9.00;99.90
12926;DHT22;6529;50.566;9.774;2023-03-31T05:42:37;9.00;99.90
12926;DHT22;6529;50.566;9.774;2023-03-31T05:45:03;9.00;99.90
12926;DHT22;6529;50.566;9.774;2023-03-31T05:47:30;9.00;99.90
12926;DHT22;6529;50.566;9.774;2023-03-31T05:49:56;9.00;99.90
12926;DHT22;6529;50.566;9.774;2023-03-31T05:52:22;8.90;99.90
12926;DHT22;6529;50.566;9.774;2023-03-31T05:54:48;8.90;99.90
12926;DHT22;6529;50.566;9.774;2023-03-31T05:57:13;8.90;99.90
12926;DHT22;6529;50.566;9.774;2023-03-31T05:59:39;8.90;99.90
12926;DHT22;6529;50.566;9.774;2023-03-31T06:02:06;8.90;99.90
12926;DHT22;6529;50.566;9.774;2023-03-31T06:04:32;9.00;99.90
12926;DHT22;6529;50.566;9.774;2023-03-31T06:06:58;9.00;99.90
12926;DHT22;6529;50.566;9.774;2023-03-31T06:09:24;9.10;99.90
12926;DHT22;6529;50.566;9.774;2023-03-31T06:11:50;9.10;99.90
12926;DHT22;6529;50.566;9.774;2023-03-31T06:14:15;9.00;99.90
12926;DHT22;6529;50.566;9.774;2023-03-31T06:16:41;9.00;99.90
12926;DHT22;6529;50.566;9.774;2023-03-31T06:19:07;9.00;99.90
12926;DHT22;6529;50.566;9.774;2023-03-31T06:21:32;9.00;99.90
12926;DHT22;6529;50.566;9.774;2023-03-31T06:23:58;9.10;99.90
12926;DHT22;6529;50.566;9.774;2023-03-31T06:26:25;9.10;99.90
12926;DHT22;6529;50.566;9.774;2023-03-31T06:28:51;9.10;99.90
12926;DHT22;6529;50.566;9.774;2023-03-31T06:31:20;9.20;99.90
12926;DHT22;6529;50.566;9.774;2023-03-31T06:33:46;9.20;99.90
12926;DHT22;6529;50.566;9.774;2023-03-31T06:36:14;9.20;99.90
12926;DHT22;6529;50.566;9.774;2023-03-31T06:38:41;9.20;99.90
12926;DHT22;6529;50.566;9.774;2023-03-31T06:41:09;9.20;99.90
12926;DHT22;6529;50.566;9.774;2023-03-31T06:43:36;9.10;99.90
12926;DHT22;6529;50.566;9.774;2023-03-31T06:46:01;9.10;99.90
12926;DHT22;6529;50.566;9.774;2023-03-31T06:48:27;9.20;99.90
12926;DHT22;6529;50.566;9.774;2023-03-31T06:50:53;9.20;99.90
12926;DHT22;6529;50.566;9.774;2023-03-31T06:53:19;9.20;99.90
12926;DHT22;6529;50.566;9.774;2023-03-31T06:55:46;9.10;99.90
12926;DHT22;6529;50.566;9.774;2023-03-31T06:58:12;9.10;99.90
12926;DHT22;6529;50.566;9.774;2023-03-31T07:00:38;9.10;99.90
12926;DHT22;6529;50.566;9.774;2023-03-31T07:03:03;9.10;99.90
12926;DHT22;6529;50.566;9.774;2023-03-31T07:05:30;9.00;99.90
12926;DHT22;6529;50.566;9.774;2023-03-31T07:07:57;9.00;99.90
12926;DHT22;6529;50.566;9.774;2023-03-31T07:10:24;9.00;99.90
12926;DHT22;6529;50.566;9.774;2023-03-31T07:12:50;9.00;99.90
12926;DHT22;6529;50.566;9.774;2023-03-31T07:15:16;9.00;99.90
12926;DHT22;6529;50.566;9.774;2023-03-31T07:17:42;9.10;99.90
12926;DHT22;6529;50.566;9.774;2023-03-31T07:20:12;9.10;99.90
12926;DHT22;6529;50.566;9.774;2023-03-31T07:22:41;9.10;99.90
12926;DHT22;6529;50.566;9.774;2023-03-31T07:25:09;9.10;99.90
12926;DHT22;6529;50.566;9.774;2023-03-31T07:27:36;9.10;99.90
12926;DHT22;6529;50.566;9.774;2023-03-31T07:30:04;9.10;99.90
12926;DHT22;6529;50.566;9.774;2023-03-31T07:32:30;9.10;99.90
12926;DHT22;6529;50.566;9.774;2023-03-31T07:34:55;9.10;99.90
12926;DHT22;6529;50.566;9.774;2023-03-31T07:37:21;9.10;99.90
12926;DHT22;6529;50.566;9.774;2023-03-31T07:39:46;9.10;99.90
12926;DHT22;6529;50.566;9.774;2023-03-31T07:42:12;9.10;99.90
12926;DHT22;6529;50.566;9.774;2023-03-31T07:44:37;9.10;99.90
12926;DHT22;6529;50.566;9.774;2023-03-31T07:47:03;9.00;99.90
12926;DHT22;6529;50.566;9.774;2023-03-31T07:49:32;9.00;99.90
12926;DHT22;6529;50.566;9.774;2023-03-31T07:51:59;9.00;99.90
12926;DHT22;6529;50.566;9.774;2023-03-31T07:54:25;9.00;99.90
12926;DHT22;6529;50.566;9.774;2023-03-31T07:56:51;9.00;99.90
12926;DHT22;6529;50.566;9.774;2023-03-31T07:59:17;9.00;99.90
12926;DHT22;6529;50.566;9.774;2023-03-31T08:01:43;9.00;99.90
12926;DHT22;6529;50.566;9.774;2023-03-31T08:04:09;9.00;99.90
12926;DHT22;6529;50.566;9.774;2023-03-31T08:06:35;9.00;99.90
12926;DHT22;6529;50.566;9.774;2023-03-31T08:09:01;9.00;99.90
12926;DHT22;6529;50.566;9.774;2023-03-31T08:11:27;9.00;99.90
12926;DHT22;6529;50.566;9.774;2023-03-31T08:13:52;9.10;99.90
12926;DHT22;6529;50.566;9.774;2023-03-31T08:16:18;9.10;99.90
12926;DHT22;6529;50.566;9.774;2023-03-31T08:18:43;9.10;99.90
12926;DHT22;6529;50.566;9.774;2023-03-31T08:21:09;9.10;99.90
12926;DHT22;6529;50.566;9.774;2023-03-31T08:23:35;9.10;99.90
12926;DHT22;6529;50.566;9.774;2023-03-31T08:26:14;9.10;99.90
12926;DHT22;6529;50.566;9.774;2023-03-31T08:28:44;9.20;99.90
12926;DHT22;6529;50.566;9.774;2023-03-31T08:31:10;9.20;99.90
12926;DHT22;6529;50.566;9.774;2023-03-31T08:33:36;9.20;99.90
12926;DHT22;6529;50.566;9.774;2023-03-31T08:36:05;9.20;99.90
12926;DHT22;6529;50.566;9.774;2023-03-31T08:38:33;9.10;99.90
12926;DHT22;6529;50.566;9.774;2023-03-31T08:41:00;9.10;99.90
12926;DHT22;6529;50.566;9.774;2023-03-31T08:43:32;9.10;99.90
12926;DHT22;6529;50.566;9.774;2023-03-31T08:46:00;9.20;99.90
12926;DHT22;6529;50.566;9.774;2023-03-31T08:48:29;9.20;99.90
12926;DHT22;6529;50.566;9.774;2023-03-31T08:51:11;9.20;99.90
12926;DHT22;6529;50.566;9.774;2023-03-31T08:53:46;9.20;99.90
12926;DHT22;6529;50.566;9.774;2023-03-31T08:58:48;9.20;99.90
12926;DHT22;6529;50.566;9.774;2023-03-31T09:01:48;9.20;99.90
12926;DHT22;6529;50.566;9.774;2023-03-31T09:15:37;9.30;99.90
12926;DHT22;6529;50.566;9.774;2023-03-31T09:20:43;9.10;99.90
12926;DHT22;6529;50.566;9.774;2023-03-31T09:25:48;9.10;99.90
12926;DHT22;6529;50.566;9.774;2023-03-31T09:28:22;9.00;99.90
12926;DHT22;6529;50.566;9.774;2023-03-31T09:30:50;9.10;99.90
12926;DHT22;6529;50.566;9.774;2023-03-31T09:33:28;9.00;99.90
12926;DHT22;6529;50.566;9.774;2023-03-31T09:36:00;9.00;99.90
12926;DHT22;6529;50.566;9.774;2023-03-31T09:38:27;9.20;99.90
12926;DHT22;6529;50.566;9.774;2023-03-31T09:40:58;9.20;99.90
12926;DHT22;6529;50.566;9.774;2023-03-31T09:43:26;9.30;99.90
12926;DHT22;6529;50.566;9.774;2023-03-31T09:45:53;9.50;99.90
12926;DHT22;6529;50.566;9.774;2023-03-31T09:48:25;9.70;99.90
12926;DHT22;6529;50.566;9.774;2023-03-31T09:51:00;9.90;99.90
12926;DHT22;6529;50.566;9.774;2023-03-31T09:53:40;10.20;99.90
12926;DHT22;6529;50.566;9.774;2023-03-31T09:56:08;10.50;99.90
12926;DHT22;6529;50.566;9.774;2023-03-31T09:58:43;10.60;99.90
12926;DHT22;6529;50.566;9.774;2023-03-31T10:01:12;11.00;99.90
12926;DHT22;6529;50.566;9.774;2023-03-31T10:03:52;11.20;99.90
12926;DHT22;6529;50.566;9.774;2023-03-31T10:06:18;11.60;99.90
12926;DHT22;6529;50.566;9.774;2023-03-31T10:09:00;11.90;99.90
12926;DHT22;6529;50.566;9.774;2023-03-31T10:11:26;12.10;99.90
12926;DHT22;6529;50.566;9.774;2023-03-31T10:14:02;12.10;99.90
12926;DHT22;6529;50.566;9.774;2023-03-31T10:18:53;11.90;99.90
12926;DHT22;6529;50.566;9.774;2023-03-31T10:21:24;12.10;99.90
12926;DHT22;6529;50.566;9.774;2023-03-31T10:23:52;12.40;99.90
12926;DHT22;6529;50.566;9.774;2023-03-31T10:26:24;12.60;99.90
12926;DHT22;6529;50.566;9.774;2023-03-31T10:28:51;12.70;99.90
12926;DHT22;6529;50.566;9.774;2023-03-31T10:31:23;12.80;99.90
12926;DHT22;6529;50.566;9.774;2023-03-31T10:33:51;12.50;99.90
12926;DHT22;6529;50.566;9.774;2023-03-31T10:36:24;12.30;99.90
12926;DHT22;6529;50.566;9.774;2023-03-31T10:38:52;12.20;99.90
12926;DHT22;6529;50.566;9.774;2023-03-31T10:41:23;12.10;99.90
12926;DHT22;6529;50.566;9.774;2023-03-31T10:43:52;12.10;99.90
12926;DHT22;6529;50.566;9.774;2023-03-31T10:46:18;12.10;99.90
12926;DHT22;6529;50.566;9.774;2023-03-31T10:48:44;12.10;99.90
12926;DHT22;6529;50.566;9.774;2023-03-31T10:53:44;11.90;99.90
12926;DHT22;6529;50.566;9.774;2023-03-31T10:56:17;11.80;99.90
12926;DHT22;6529;50.566;9.774;2023-03-31T11:08:16;11.80;99.90
12926;DHT22;6529;50.566;9.774;2023-03-31T11:14:18;11.70;99.90
12926;DHT22;6529;50.566;9.774;2023-03-31T11:17:12;11.60;99.90
12926;DHT22;6529;50.566;9.774;2023-03-31T11:30:21;11.60;99.90
12926;DHT22;6529;50.566;9.774;2023-03-31T11:33:18;11.60;99.90
12926;DHT22;6529;50.566;9.774;2023-03-31T11:36:04;11.60;99.90
12926;DHT22;6529;50.566;9.774;2023-03-31T11:41:54;11.30;99.90
12926;DHT22;6529;50.566;9.774;2023-03-31T11:44:22;11.10;99.90
12926;DHT22;6529;50.566;9.774;2023-03-31T11:49:25;10.60;99.90
12926;DHT22;6529;50.566;9.774;2023-03-31T11:52:01;10.20;99.90
12926;DHT22;6529;50.566;9.774;2023-03-31T11:57:03;9.80;99.90
12926;DHT22;6529;50.566;9.774;2023-03-31T11:59:34;9.70;99.90
12926;DHT22;6529;50.566;9.774;2023-03-31T12:04:47;9.60;99.90
12926;DHT22;6529;50.566;9.774;2023-03-31T12:07:22;9.50;99.90
12926;DHT22;6529;50.566;9.774;2023-03-31T12:10:20;9.40;99.90
12926;DHT22;6529;50.566;9.774;2023-03-31T12:13:02;9.20;99.90
12926;DHT22;6529;50.566;9.774;2023-03-31T12:15:33;9.20;99.90
12926;DHT22;6529;50.566;9.774;2023-03-31T12:18:07;9.20;99.90
12926;DHT22;6529;50.566;9.774;2023-03-31T12:20:40;9.10;99.90
12926;DHT22;6529;50.566;9.774;2023-03-31T12:23:17;9.20;99.90
12926;DHT22;6529;50.566;9.774;2023-03-31T12:29:27;9.30;99.90
12926;DHT22;6529;50.566;9.774;2023-03-31T12:31:53;9.40;99.90
12926;DHT22;6529;50.566;9.774;2023-03-31T12:34:21;9.40;99.90
12926;DHT22;6529;50.566;9.774;2023-03-31T12:37:12;9.40;99.90
12926;DHT22;6529;50.566;9.774;2023-03-31T12:40:06;9.50;99.90
12926;DHT22;6529;50.566;9.774;2023-03-31T12:42:49;9.50;99.90
12926;DHT22;6529;50.566;9.774;2023-03-31T12:45:29;9.80;99.90
12926;DHT22;6529;50.566;9.774;2023-03-31T12:55:56;10.80;99.90
12926;DHT22;6529;50.566;9.774;2023-03-31T13:05:59;10.80;99.90
12926;DHT22;6529;50.566;9.774;2023-03-31T13:11:21;10.60;99.90
12926;DHT22;6529;50.566;9.774;2023-03-31T13:14:01;10.50;99.90
12926;DHT22;6529;50.566;9.774;2023-03-31T13:16:29;10.40;99.90
12926;DHT22;6529;50.566;9.774;2023-03-31T13:18:56;10.40;99.90
12926;DHT22;6529;50.566;9.774;2023-03-31T13:21:22;10.40;99.90
12926;DHT22;6529;50.566;9.774;2023-03-31T13:23:48;10.50;99.90
12926;DHT22;6529;50.566;9.774;2023-03-31T13:34:39;10.30;99.90
12926;DHT22;6529;50.566;9.774;2023-03-31T13:44:00;10.20;99.90
12926;DHT22;6529;50.566;9.774;2023-03-31T13:52:03;10.60;99.90
12926;DHT22;6529;50.566;9.774;2023-03-31T14:03:12;11.00;99.90
12926;DHT22;6529;50.566;9.774;2023-03-31T14:08:53;10.80;99.90
12926;DHT22;6529;50.566;9.774;2023-03-31T14:13:58;10.80;99.90
12926;DHT22;6529;50.566;9.774;2023-03-31T14:16:25;10.80;99.90
12926;DHT22;6529;50.566;9.774;2023-03-31T14:18:58;10.80;99.90
12926;DHT22;6529;50.566;9.774;2023-03-31T14:21:37;10.80;99.90
12926;DHT22;6529;50.566;9.774;2023-03-31T14:24:36;10.80;99.90
12926;DHT22;6529;50.566;9.774;2023-03-31T14:30:43;11.00;99.90
12926;DHT22;6529;50.566;9.774;2023-03-31T14:36:08;10.80;99.90
12926;DHT22;6529;50.566;9.774;2023-03-31T14:38:37;10.70;99.90
12926;DHT22;6529;50.566;9.774;2023-03-31T14:41:03;10.70;99.90
12926;DHT22;6529;50.566;9.774;2023-03-31T14:43:34;10.70;99.90
12926;DHT22;6529;50.566;9.774;2023-03-31T14:46:05;10.60;99.90
12926;DHT22;6529;50.566;9.774;2023-03-31T14:48:34;10.60;99.90
12926;DHT22;6529;50.566;9.774;2023-03-31T14:51:02;10.70;99.90
12926;DHT22;6529;50.566;9.774;2023-03-31T14:53:28;10.70;99.90
12926;DHT22;6529;50.566;9.774;2023-03-31T14:56:02;10.60;99.90
12926;DHT22;6529;50.566;9.774;2023-03-31T14:58:38;10.60;99.90
12926;DHT22;6529;50.566;9.774;2023-03-31T15:01:06;10.60;99.90
12926;DHT22;6529;50.566;9.774;2023-03-31T15:03:34;10.60;99.90
12926;DHT22;6529;50.566;9.774;2023-03-31T15:06:04;10.60;99.90
12926;DHT22;6529;50.566;9.774;2023-03-31T15:08:30;10.60;99.90
12926;DHT22;6529;50.566;9.774;2023-03-31T15:11:04;10.50;99.90
12926;DHT22;6529;50.566;9.774;2023-03-31T15:13:44;10.50;99.90
12926;DHT22;6529;50.566;9.774;2023-03-31T15:16:42;10.40;99.90
12926;DHT22;6529;50.566;9.774;2023-03-31T15:21:39;10.40;99.90
12926;DHT22;6529;50.566;9.774;2023-03-31T15:24:05;10.50;99.90
12926;DHT22;6529;50.566;9.774;2023-03-31T15:26:34;10.50;99.90
12926;DHT22;6529;50.566;9.774;2023-03-31T15:31:38;10.50;99.90
12926;DHT22;6529;50.566;9.774;2023-03-31T15:34:25;10.60;99.90
12926;DHT22;6529;50.566;9.774;2023-03-31T15:36:56;10.60;99.90
12926;DHT22;6529;50.566;9.774;2023-03-31T15:39:27;10.60;99.90
12926;DHT22;6529;50.566;9.774;2023-03-31T15:41:55;10.70;99.90
12926;DHT22;6529;50.566;9.774;2023-03-31T15:47:15;10.70;99.90
12926;DHT22;6529;50.566;9.774;2023-03-31T15:49:54;10.70;99.90
12926;DHT22;6529;50.566;9.774;2023-03-31T15:52:32;10.60;99.90
12926;DHT22;6529;50.566;9.774;2023-03-31T15:54:59;10.70;99.90
12926;DHT22;6529;50.566;9.774;2023-03-31T15:57:34;10.80;99.90
12926;DHT22;6529;50.566;9.774;2023-03-31T16:00:00;10.90;99.90
12926;DHT22;6529;50.566;9.774;2023-03-31T16:02:40;10.90;99.90
12926;DHT22;6529;50.566;9.774;2023-03-31T16:05:21;10.90;99.90
12926;DHT22;6529;50.566;9.774;2023-03-31T16:07:48;10.90;99.90
12926;DHT22;6529;50.566;9.774;2023-03-31T16:10:17;10.80;99.90
12926;DHT22;6529;50.566;9.774;2023-03-31T16:13:00;10.70;99.90
12926;DHT22;6529;50.566;9.774;2023-03-31T16:15:37;10.70;99.90
12926;DHT22;6529;50.566;9.774;2023-03-31T16:18:14;10.50;99.90
12926;DHT22;6529;50.566;9.774;2023-03-31T16:20:44;10.50;99.90
12926;DHT22;6529;50.566;9.774;2023-03-31T16:23:20;10.50;99.90
12926;DHT22;6529;50.566;9.774;2023-03-31T16:25:47;10.50;99.90
12926;DHT22;6529;50.566;9.774;2023-03-31T16:28:31;10.40;99.90
12926;DHT22;6529;50.566;9.774;2023-03-31T16:30:57;10.40;99.90
12926;DHT22;6529;50.566;9.774;2023-03-31T16:33:26;10.40;99.90
12926;DHT22;6529;50.566;9.774;2023-03-31T16:35:53;10.40;99.90
12926;DHT22;6529;50.566;9.774;2023-03-31T16:38:25;10.40;99.90
12926;DHT22;6529;50.566;9.774;2023-03-31T16:40:53;10.50;99.90
12926;DHT22;6529;50.566;9.774;2023-03-31T16:43:22;10.50;99.90
12926;DHT22;6529;50.566;9.774;2023-03-31T16:45:53;10.40;99.90
12926;DHT22;6529;50.566;9.774;2023-03-31T16:48:20;10.30;99.90
12926;DHT22;6529;50.566;9.774;2023-03-31T16:50:48;10.30;99.90
12926;DHT22;6529;50.566;9.774;2023-03-31T16:53:21;10.30;99.90
12926;DHT22;6529;50.566;9.774;2023-03-31T16:55:47;10.20;99.90
12926;DHT22;6529;50.566;9.774;2023-03-31T16:58:13;10.10;99.90
12926;DHT22;6529;50.566;9.774;2023-03-31T17:00:39;9.90;99.90
12926;DHT22;6529;50.566;9.774;2023-03-31T17:03:06;9.80;99.90
12926;DHT22;6529;50.566;9.774;2023-03-31T17:05:37;9.60;99.90
12926;DHT22;6529;50.566;9.774;2023-03-31T17:08:03;9.60;99.90
12926;DHT22;6529;50.566;9.774;2023-03-31T17:10:28;9.40;99.90
12926;DHT22;6529;50.566;9.774;2023-03-31T17:12:54;9.40;99.90
12926;DHT22;6529;50.566;9.774;2023-03-31T17:15:20;9.30;99.90
12926;DHT22;6529;50.566;9.774;2023-03-31T17:17:47;9.30;99.90
12926;DHT22;6529;50.566;9.774;2023-03-31T17:20:12;9.20;99.90
12926;DHT22;6529;50.566;9.774;2023-03-31T17:22:38;9.10;99.90
12926;DHT22;6529;50.566;9.774;2023-03-31T17:25:04;9.10;99.90
12926;DHT22;6529;50.566;9.774;2023-03-31T17:27:32;9.20;99.90
12926;DHT22;6529;50.566;9.774;2023-03-31T17:29:58;9.20;99.90
12926;DHT22;6529;50.566;9.774;2023-03-31T17:32:24;9.10;99.90
12926;DHT22;6529;50.566;9.774;2023-03-31T17:34:50;9.20;99.90
12926;DHT22;6529;50.566;9.774;2023-03-31T17:37:17;9.10;99.90
12926;DHT22;6529;50.566;9.774;2023-03-31T17:39:43;9.10;99.90
12926;DHT22;6529;50.566;9.774;2023-03-31T17:42:10;9.00;99.90
12926;DHT22;6529;50.566;9.774;2023-03-31T17:44:37;9.00;99.90
12926;DHT22;6529;50.566;9.774;2023-03-31T17:47:04;9.00;99.90
12926;DHT22;6529;50.566;9.774;2023-03-31T17:49:30;9.00;99.90
12926;DHT22;6529;50.566;9.774;2023-03-31T17:51:57;9.00;99.90
12926;DHT22;6529;50.566;9.774;2023-03-31T17:54:23;9.00;99.90
12926;DHT22;6529;50.566;9.774;2023-03-31T17:56:49;9.10;99.90
12926;DHT22;6529;50.566;9.774;2023-03-31T17:59:16;9.10;99.90
12926;DHT22;6529;50.566;9.774;2023-03-31T18:01:41;9.10;99.90
12926;DHT22;6529;50.566;9.774;2023-03-31T18:04:07;9.20;99.90
12926;DHT22;6529;50.566;9.774;2023-03-31T18:06:33;9.10;99.90
12926;DHT22;6529;50.566;9.774;2023-03-31T18:08:59;9.10;99.90
12926;DHT22;6529;50.566;9.774;2023-03-31T18:11:25;9.10;99.90
12926;DHT22;6529;50.566;9.774;2023-03-31T18:13:51;9.00;99.90
12926;DHT22;6529;50.566;9.774;2023-03-31T18:16:17;9.10;99.90
12926;DHT22;6529;50.566;9.774;2023-03-31T18:18:43;9.10;99.90
12926;DHT22;6529;50.566;9.774;2023-03-31T18:21:11;9.10;99.90
12926;DHT22;6529;50.566;9.774;2023-03-31T18:23:38;9.10;99.90
12926;DHT22;6529;50.566;9.774;2023-03-31T18:26:08;9.10;99.90
12926;DHT22;6529;50.566;9.774;2023-03-31T18:28:34;9.00;99.90
12926;DHT22;6529;50.566;9.774;2023-03-31T18:31:04;9.10;99.90
12926;DHT22;6529;50.566;9.774;2023-03-31T18:33:30;9.10;99.90
12926;DHT22;6529;50.566;9.774;2023-03-31T18:35:56;9.10;99.90
12926;DHT22;6529;50.566;9.774;2023-03-31T18:38:23;9.10;99.90
12926;DHT22;6529;50.566;9.774;2023-03-31T18:40:50;9.00;99.90
12926;DHT22;6529;50.566;9.774;2023-03-31T18:43:17;9.00;99.90
12926;DHT22;6529;50.566;9.774;2023-03-31T18:45:53;9.10;99.90
12926;DHT22;6529;50.566;9.774;2023-03-31T18:48:20;9.10;99.90
12926;DHT22;6529;50.566;9.774;2023-03-31T18:50:50;9.10;99.90
12926;DHT22;6529;50.566;9.774;2023-03-31T18:53:20;9.00;99.90
12926;DHT22;6529;50.566;9.774;2023-03-31T18:55:50;9.10;99.90
12926;DHT22;6529;50.566;9.774;2023-03-31T18:58:16;9.10;99.90
12926;DHT22;6529;50.566;9.774;2023-03-31T19:00:42;9.10;99.90
12926;DHT22;6529;50.566;9.774;2023-03-31T19:03:08;9.10;99.90
12926;DHT22;6529;50.566;9.774;2023-03-31T19:05:34;9.10;99.90